Grand Canyon National Park Airport Grand Canyon US
ICAO: KGCN
IATA: GCN
Category: Medium
Scheduled Services: Yes

Elevation: 6609 ft
TransAlt. 18000 ft.

Airport Communications:
ASOS:124.3
ATIS:124.3
LOS ANGELES CNTR:124.85
CTAF:119
GND:121.9
PRESCOTT RDO:122.3
CANYON TWR:119
UNICOM:122.95

KGCN Zoom In..

If you have problems with the map follow the link
https://www.worldairports.se/pages/airport.php?
ICAO=KGCN

Runways:

(A) RW 03 length 8999 ft width 150 ft
ILS 108.90 / hdg 27

(B) RW 21 length 8999 ft width 150 ft
---- / hdg 207

Location; KGCN
Day. 18 / Time. 23.54 Zulu
* Altimeter: 30.27
* Temperature: 11° c. 51.8°f.
* Wind from: 050° Speed 08 kn.
Dewpoint: 00° c.
Visibility: 10 Statute Miles.
Clouds: Clear (automated report).

KGCN 182354Z 05008KT 10SM CLR 11/00 A3027 RMK AO2 SLP230 T01060000 10128 20089 53001


Wind From 050°
Speed 08 kn.

 
 
jpsmedia.com for Web Design worldairports.se 2018   terms of use